createdAt,value
2022-11-16T00:01:56.128Z,6.88
2022-11-16T00:04:25.434Z,11.65
2022-11-16T00:06:53.437Z,9.60
2022-11-16T00:09:26.678Z,8.70
2022-11-16T00:11:57.251Z,11.02
2022-11-16T00:14:27.624Z,11.85
2022-11-16T00:16:55.838Z,10.15
2022-11-16T00:19:25.670Z,9.55
2022-11-16T00:21:53.699Z,9.10
2022-11-16T00:24:23.261Z,11.82
2022-11-16T00:26:51.432Z,10.25
2022-11-16T00:29:21.418Z,14.43
2022-11-16T00:31:50.093Z,12.95
2022-11-16T00:34:18.962Z,12.23
2022-11-16T00:36:48.421Z,11.38
2022-11-16T00:39:17.760Z,12.30
2022-11-16T00:41:45.831Z,11.77
2022-11-16T00:44:14.312Z,18.75
2022-11-16T00:46:42.837Z,16.88
2022-11-16T00:49:10.761Z,11.60
2022-11-16T00:51:39.048Z,12.30
2022-11-16T00:54:09.658Z,15.43
2022-11-16T00:56:38.050Z,11.88
2022-11-16T00:59:06.055Z,14.63
2022-11-16T01:01:34.073Z,15.45
2022-11-16T01:04:02.177Z,12.32
2022-11-16T01:06:30.078Z,12.10
2022-11-16T01:08:58.143Z,10.70
2022-11-16T01:11:45.016Z,10.73
2022-11-16T01:14:13.121Z,11.40
2022-11-16T01:16:41.074Z,10.40
2022-11-16T01:19:09.113Z,9.00
2022-11-16T01:21:37.179Z,13.65
2022-11-16T01:24:05.657Z,11.20
2022-11-16T01:26:34.937Z,8.00
2022-11-16T01:29:02.934Z,7.88
2022-11-16T01:31:31.183Z,10.68
2022-11-16T01:33:59.063Z,8.93
2022-11-16T01:36:26.998Z,7.03
2022-11-16T01:38:55.038Z,7.25
2022-11-16T01:41:24.446Z,6.07
2022-11-16T01:43:57.153Z,6.78
2022-11-16T01:46:26.369Z,6.82
2022-11-16T01:48:59.265Z,4.75
2022-11-16T01:51:28.237Z,5.22
2022-11-16T01:53:57.162Z,5.28
2022-11-16T01:56:25.872Z,3.97
2022-11-16T01:58:55.320Z,3.47
2022-11-16T02:01:23.341Z,4.90
2022-11-16T02:03:51.345Z,4.43
2022-11-16T02:06:37.302Z,7.22
2022-11-16T02:09:37.336Z,5.57
2022-11-16T02:12:18.753Z,5.88
2022-11-16T02:15:04.023Z,4.40
2022-11-16T02:17:40.893Z,4.45
2022-11-16T02:20:40.335Z,5.50
2022-11-16T02:25:58.518Z,5.18
2022-11-16T02:28:39.521Z,6.40
2022-11-16T02:31:13.604Z,5.90
2022-11-16T02:33:43.139Z,5.30
2022-11-16T02:36:15.828Z,4.55
2022-11-16T02:38:48.820Z,6.32
2022-11-16T02:41:20.946Z,9.45
2022-11-16T02:43:55.691Z,7.15
2022-11-16T02:46:29.734Z,9.82
2022-11-16T02:49:01.970Z,6.40
2022-11-16T02:51:31.536Z,7.22
2022-11-16T02:54:03.770Z,5.10
2022-11-16T02:56:41.961Z,5.20
2022-11-16T03:01:49.185Z,5.18
2022-11-16T03:04:22.174Z,5.82
2022-11-16T03:06:52.515Z,6.90
2022-11-16T03:09:25.549Z,5.15
2022-11-16T03:12:00.033Z,5.45
2022-11-16T03:14:32.681Z,8.07
2022-11-16T03:17:03.511Z,4.43
2022-11-16T03:19:37.765Z,5.47
2022-11-16T03:22:12.352Z,6.57
2022-11-16T03:24:41.952Z,7.47
2022-11-16T03:27:19.596Z,4.47
2022-11-16T03:29:56.323Z,5.43
2022-11-16T03:32:31.504Z,5.78
2022-11-16T03:35:04.016Z,5.22
2022-11-16T03:37:33.086Z,4.07
2022-11-16T03:40:03.667Z,5.25
2022-11-16T03:42:33.152Z,5.50
2022-11-16T03:45:02.484Z,5.20
2022-11-16T03:47:31.821Z,5.50
2022-11-16T03:49:59.750Z,6.30
2022-11-16T03:52:27.734Z,4.75
2022-11-16T03:54:55.664Z,6.15
2022-11-16T03:57:23.519Z,5.65
2022-11-16T03:59:51.418Z,5.47
2022-11-16T04:02:19.561Z,4.93
2022-11-16T04:05:06.239Z,5.22
2022-11-16T04:07:51.520Z,3.92
2022-11-16T04:10:36.870Z,3.97
2022-11-16T04:13:23.078Z,5.13
2022-11-16T04:16:08.691Z,4.50
2022-11-16T04:18:54.067Z,3.03
2022-11-16T04:21:43.881Z,7.30
2022-11-16T04:24:15.954Z,4.90
2022-11-16T04:27:04.721Z,5.70
2022-11-16T04:32:18.280Z,8.20
2022-11-16T04:35:03.920Z,9.07
2022-11-16T04:37:52.442Z,10.45
2022-11-16T04:40:22.534Z,9.80
2022-11-16T04:42:53.732Z,12.90
2022-11-16T04:45:40.125Z,11.70
2022-11-16T04:48:08.695Z,8.45
2022-11-16T04:50:36.683Z,9.38
2022-11-16T04:53:06.756Z,8.77
2022-11-16T04:55:35.235Z,7.45
2022-11-16T04:58:03.832Z,9.48
2022-11-16T05:00:32.153Z,9.82
2022-11-16T05:03:01.814Z,13.35
2022-11-16T05:05:30.127Z,12.75
2022-11-16T05:07:58.062Z,11.55
2022-11-16T05:10:27.666Z,10.65
2022-11-16T05:12:55.576Z,10.65
2022-11-16T05:15:23.452Z,11.98
2022-11-16T05:17:54.822Z,10.85
2022-11-16T05:20:40.204Z,8.05
2022-11-16T05:23:28.550Z,11.25
2022-11-16T05:25:57.849Z,12.23
2022-11-16T05:28:25.785Z,5.93
2022-11-16T05:30:53.691Z,7.72
2022-11-16T05:33:21.594Z,4.55
2022-11-16T05:35:50.851Z,10.13
2022-11-16T05:38:18.823Z,6.63
2022-11-16T05:40:46.786Z,7.63
2022-11-16T05:43:16.014Z,5.50
2022-11-16T05:45:44.169Z,6.18
2022-11-16T05:48:12.090Z,5.82
2022-11-16T05:50:42.940Z,6.05
2022-11-16T05:53:11.458Z,5.95
2022-11-16T05:55:39.434Z,6.05
2022-11-16T05:58:07.311Z,6.85
2022-11-16T06:00:36.553Z,3.42
2022-11-16T06:03:04.481Z,4.43
2022-11-16T06:05:36.298Z,4.90
2022-11-16T06:08:07.229Z,5.13
2022-11-16T06:10:35.271Z,7.65
2022-11-16T06:13:03.181Z,8.80
2022-11-16T06:15:31.129Z,5.88
2022-11-16T06:18:00.410Z,5.30
2022-11-16T06:20:28.268Z,6.88
2022-11-16T06:22:56.157Z,5.20
2022-11-16T06:25:24.162Z,9.43
2022-11-16T06:27:52.027Z,4.22
2022-11-16T06:30:20.070Z,5.57
2022-11-16T06:32:47.954Z,4.88
2022-11-16T06:35:17.603Z,4.30
2022-11-16T06:37:45.481Z,4.43
2022-11-16T06:40:13.458Z,7.32
2022-11-16T06:42:41.739Z,4.22
2022-11-16T06:45:10.447Z,3.97
2022-11-16T06:47:38.406Z,3.15
2022-11-16T06:50:07.001Z,3.63
2022-11-16T06:52:36.270Z,2.47
2022-11-16T06:55:04.245Z,5.18
2022-11-16T06:57:32.189Z,5.30
2022-11-16T07:00:00.111Z,3.25
2022-11-16T07:02:28.174Z,4.75
2022-11-16T07:05:00.567Z,3.50
2022-11-16T07:07:31.309Z,2.88
2022-11-16T07:10:00.697Z,3.67
2022-11-16T07:12:28.660Z,2.67
2022-11-16T07:14:56.607Z,3.95
2022-11-16T07:17:24.486Z,4.75
2022-11-16T07:19:52.406Z,6.20
2022-11-16T07:22:20.348Z,2.55
2022-11-16T07:24:48.320Z,8.55
2022-11-16T07:27:17.602Z,3.60
2022-11-16T07:29:45.629Z,3.22
2022-11-16T07:32:13.654Z,3.22
2022-11-16T07:34:41.604Z,2.30
2022-11-16T07:37:09.505Z,2.50
2022-11-16T07:39:37.447Z,1.85
2022-11-16T07:42:07.891Z,2.33
2022-11-16T07:44:37.153Z,1.77
2022-11-16T07:47:05.332Z,1.95
2022-11-16T07:49:33.346Z,3.45
2022-11-16T07:52:01.311Z,2.75
2022-11-16T07:54:29.223Z,2.45
2022-11-16T07:56:57.172Z,4.15
2022-11-16T07:59:25.166Z,2.88
2022-11-16T08:01:55.699Z,1.20
2022-11-16T08:04:23.797Z,3.40
2022-11-16T08:06:51.988Z,1.30
2022-11-16T08:09:19.997Z,2.13
2022-11-16T08:11:48.164Z,1.25
2022-11-16T08:14:16.285Z,1.17
2022-11-16T08:16:44.279Z,1.05
2022-11-16T08:19:13.626Z,1.23
2022-11-16T08:21:41.569Z,1.92
2022-11-16T08:24:10.301Z,5.60
2022-11-16T08:26:38.301Z,1.88
2022-11-16T08:29:06.257Z,2.05
2022-11-16T08:31:34.241Z,0.95
2022-11-16T08:34:02.192Z,0.70
2022-11-16T08:36:31.543Z,1.55
2022-11-16T08:38:59.508Z,1.50
2022-11-16T08:41:27.697Z,1.10
2022-11-16T08:43:55.619Z,2.05
2022-11-16T08:46:23.614Z,0.80
2022-11-16T08:48:56.767Z,1.98
2022-11-16T08:51:25.743Z,1.98
2022-11-16T08:53:58.801Z,0.80
2022-11-16T08:56:27.463Z,1.02
2022-11-16T08:58:58.806Z,1.80
2022-11-16T09:01:29.479Z,1.00
2022-11-16T09:03:58.098Z,0.70
2022-11-16T09:06:27.684Z,1.25
2022-11-16T09:08:57.541Z,1.52
2022-11-16T09:11:26.540Z,2.63
2022-11-16T09:13:55.837Z,3.22
2022-11-16T09:16:24.690Z,1.20
2022-11-16T09:18:53.181Z,1.65
2022-11-16T09:21:22.536Z,1.67
2022-11-16T09:23:51.383Z,2.30
2022-11-16T09:26:23.958Z,0.80
2022-11-16T09:28:56.730Z,1.85
2022-11-16T09:31:27.264Z,1.67
2022-11-16T09:33:58.093Z,1.08
2022-11-16T09:36:26.707Z,5.15
2022-11-16T09:39:19.417Z,6.70
2022-11-16T09:41:54.678Z,3.65
2022-11-16T09:44:40.718Z,1.33
2022-11-16T09:47:15.917Z,1.33
2022-11-16T09:49:48.523Z,1.58
2022-11-16T09:52:24.635Z,3.25
2022-11-16T09:54:54.756Z,2.13
2022-11-16T09:57:30.164Z,1.58
2022-11-16T10:00:01.939Z,1.70
2022-11-16T10:02:35.403Z,1.92
2022-11-16T10:05:08.475Z,1.25
2022-11-16T10:07:44.176Z,1.15
2022-11-16T10:10:14.831Z,3.53
2022-11-16T10:12:49.756Z,1.35
2022-11-16T10:15:33.689Z,4.10
2022-11-16T10:18:20.234Z,4.43
2022-11-16T10:21:14.021Z,1.30
2022-11-16T10:23:59.241Z,3.67
2022-11-16T10:26:35.878Z,3.95
2022-11-16T10:29:26.310Z,3.03
2022-11-16T10:32:15.320Z,1.90
2022-11-16T10:34:51.765Z,3.55
2022-11-16T10:37:20.637Z,2.10
2022-11-16T10:39:50.564Z,10.10
2022-11-16T10:42:22.380Z,1.23
2022-11-16T10:44:59.424Z,2.47
2022-11-16T10:47:36.632Z,4.50
2022-11-16T10:50:11.285Z,2.05
2022-11-16T10:52:39.250Z,2.88
2022-11-16T10:55:08.205Z,2.08
2022-11-16T10:57:57.720Z,4.43
2022-11-16T11:00:42.963Z,3.92
2022-11-16T11:03:11.974Z,4.10
2022-11-16T11:05:52.386Z,2.40
2022-11-16T11:08:30.384Z,3.20
2022-11-16T11:11:23.193Z,4.88
2022-11-16T11:14:05.204Z,3.30
2022-11-16T11:16:34.565Z,1.65
2022-11-16T11:19:20.689Z,3.42
2022-11-16T11:21:49.453Z,4.38
2022-11-16T11:27:07.353Z,1.20
2022-11-16T11:29:38.588Z,2.47
2022-11-16T11:32:16.867Z,4.00
2022-11-16T11:34:49.553Z,2.03
2022-11-16T11:37:20.278Z,2.83
2022-11-16T11:39:48.379Z,3.05
2022-11-16T11:42:24.291Z,5.85
2022-11-16T11:44:58.653Z,1.80
2022-11-16T11:48:00.963Z,4.85
2022-11-16T11:50:43.533Z,3.70
2022-11-16T11:53:22.272Z,3.33
2022-11-16T11:55:56.226Z,3.92
2022-11-16T11:58:29.346Z,4.07
2022-11-16T12:01:10.134Z,5.32
2022-11-16T12:04:19.878Z,1.95
2022-11-16T12:06:56.107Z,1.60
2022-11-16T12:09:37.511Z,2.03
2022-11-16T12:12:23.346Z,2.60
2022-11-16T12:15:04.905Z,1.35
2022-11-16T12:17:43.003Z,2.72
2022-11-16T12:23:19.436Z,4.90
2022-11-16T12:25:54.086Z,3.53
2022-11-16T12:28:35.988Z,2.97
2022-11-16T12:31:21.574Z,1.20
2022-11-16T12:33:58.178Z,2.25
2022-11-16T12:36:36.076Z,2.15
2022-11-16T12:42:06.506Z,7.20
2022-11-16T12:44:50.074Z,0.90
2022-11-16T12:47:23.943Z,3.13
2022-11-16T12:50:04.076Z,1.55
2022-11-16T12:52:50.105Z,1.83
2022-11-16T12:55:27.808Z,2.85
2022-11-16T12:58:08.519Z,2.15
2022-11-16T13:00:49.109Z,2.00
2022-11-16T13:03:24.499Z,3.08
2022-11-16T13:06:00.350Z,3.65
2022-11-16T13:08:45.545Z,2.30
2022-11-16T13:11:20.697Z,2.00
2022-11-16T13:13:53.597Z,1.55
2022-11-16T13:16:23.026Z,1.40
2022-11-16T13:18:52.199Z,2.63
2022-11-16T13:21:29.531Z,4.15
2022-11-16T13:24:09.203Z,2.63
2022-11-16T13:26:45.594Z,2.47
2022-11-16T13:29:26.797Z,2.92
2022-11-16T13:32:00.753Z,6.47
2022-11-16T13:34:32.928Z,2.05
2022-11-16T13:37:00.827Z,2.95
2022-11-16T13:40:02.212Z,2.50
2022-11-16T13:42:32.906Z,5.78
2022-11-16T13:45:08.844Z,4.25
2022-11-16T13:47:38.155Z,5.95
2022-11-16T13:50:17.292Z,4.35
2022-11-16T13:53:36.550Z,3.70
2022-11-16T13:55:41.019Z,5.25
2022-11-16T13:58:13.983Z,4.97
2022-11-16T14:00:42.585Z,4.70
2022-11-16T14:03:33.132Z,1.33
2022-11-16T14:06:01.328Z,2.30
2022-11-16T14:08:50.528Z,4.75
2022-11-16T14:11:30.869Z,5.60
2022-11-16T14:14:01.903Z,2.90
2022-11-16T14:16:49.902Z,3.40
2022-11-16T14:19:55.049Z,5.20
2022-11-16T14:22:53.986Z,4.30
2022-11-16T14:25:37.230Z,4.82
2022-11-16T14:28:21.872Z,3.47
2022-11-16T14:31:01.388Z,3.30
2022-11-16T14:33:33.468Z,4.00
2022-11-16T14:36:03.460Z,8.20
2022-11-16T14:38:33.833Z,4.60
2022-11-16T14:41:04.397Z,3.92
2022-11-16T14:43:36.774Z,2.45
2022-11-16T14:46:09.608Z,4.60
2022-11-16T14:48:45.222Z,2.05
2022-11-16T14:51:17.511Z,5.05
2022-11-16T14:53:49.393Z,2.63
2022-11-16T14:56:19.404Z,4.38
2022-11-16T14:58:53.335Z,10.00
2022-11-16T15:01:25.791Z,9.25
2022-11-16T15:03:57.483Z,4.90
2022-11-16T15:06:27.767Z,6.25
2022-11-16T15:08:59.399Z,4.95
2022-11-16T15:11:50.197Z,4.97
2022-11-16T15:14:20.996Z,5.30
2022-11-16T15:16:55.154Z,3.42
2022-11-16T15:19:23.763Z,2.90
2022-11-16T15:21:54.140Z,3.58
2022-11-16T15:24:31.393Z,3.85
2022-11-16T15:27:20.631Z,4.93
2022-11-16T15:29:48.943Z,4.45
2022-11-16T15:32:18.818Z,6.75
2022-11-16T15:34:50.368Z,6.28
2022-11-16T15:37:28.239Z,7.22
2022-11-16T15:39:57.580Z,5.88
2022-11-16T15:42:27.836Z,6.43
2022-11-16T15:44:56.491Z,3.40
2022-11-16T15:47:26.022Z,3.72
2022-11-16T15:49:55.265Z,4.38
2022-11-16T15:52:42.117Z,5.03
2022-11-16T15:55:27.612Z,9.02
2022-11-16T15:58:14.727Z,29.17
2022-11-16T16:00:43.493Z,8.60
2022-11-16T16:03:22.714Z,4.25
2022-11-16T16:05:51.299Z,6.93
2022-11-16T16:08:34.150Z,7.82
2022-11-16T16:11:06.369Z,7.72
2022-11-16T16:13:37.143Z,10.75
2022-11-16T16:16:27.994Z,5.18
2022-11-16T16:19:03.802Z,9.55
2022-11-16T16:21:44.285Z,7.93
2022-11-16T16:24:36.980Z,3.50
2022-11-16T16:27:14.708Z,5.15
2022-11-16T16:29:42.778Z,4.82
2022-11-16T16:32:15.086Z,7.53
2022-11-16T16:34:44.305Z,7.40
2022-11-16T16:37:13.363Z,10.77
2022-11-16T16:39:42.118Z,10.98
2022-11-16T16:42:11.967Z,10.02
2022-11-16T16:44:40.343Z,5.97
2022-11-16T16:47:09.996Z,3.33
2022-11-16T16:49:38.365Z,5.50
2022-11-16T16:52:08.404Z,6.47
2022-11-16T16:54:36.349Z,7.60
2022-11-16T16:57:04.440Z,4.30
2022-11-16T16:59:32.529Z,10.93
2022-11-16T17:02:00.835Z,8.73
2022-11-16T17:04:29.032Z,11.48
2022-11-16T17:06:57.014Z,11.20
2022-11-16T17:09:26.721Z,15.77
2022-11-16T17:11:54.601Z,14.43
2022-11-16T17:14:24.514Z,10.95
2022-11-16T17:16:52.792Z,13.90
2022-11-16T17:19:23.213Z,5.82
2022-11-16T17:21:52.264Z,5.75
2022-11-16T17:24:20.107Z,5.55
2022-11-16T17:26:49.322Z,5.13
2022-11-16T17:29:17.510Z,8.65
2022-11-16T17:31:47.734Z,6.00
2022-11-16T17:34:15.613Z,4.10
2022-11-16T17:36:43.733Z,9.50
2022-11-16T17:39:11.701Z,9.73
2022-11-16T17:41:39.684Z,6.88
2022-11-16T17:44:09.248Z,5.30
2022-11-16T17:46:37.343Z,5.97
2022-11-16T17:49:05.251Z,9.10
2022-11-16T17:51:33.172Z,4.75
2022-11-16T17:54:01.589Z,7.45
2022-11-16T17:56:30.123Z,8.70
2022-11-16T17:58:59.054Z,8.93
2022-11-16T18:01:28.916Z,7.07
2022-11-16T18:03:56.966Z,10.38
2022-11-16T18:06:26.392Z,7.88
2022-11-16T18:08:54.481Z,9.95
2022-11-16T18:11:23.873Z,8.23
2022-11-16T18:13:54.381Z,8.32
2022-11-16T18:16:24.886Z,12.75
2022-11-16T18:18:59.283Z,11.75
2022-11-16T18:21:27.522Z,6.25
2022-11-16T18:23:55.913Z,7.40
2022-11-16T18:26:24.974Z,10.90
2022-11-16T18:28:54.211Z,7.78
2022-11-16T18:31:23.556Z,8.30
2022-11-16T18:33:52.214Z,8.55
2022-11-16T18:36:22.732Z,6.97
2022-11-16T18:38:50.842Z,11.80
2022-11-16T18:41:20.773Z,10.75
2022-11-16T18:43:50.925Z,5.97
2022-11-16T18:46:18.999Z,10.18
2022-11-16T18:48:47.522Z,14.70
2022-11-16T18:51:16.471Z,12.68
2022-11-16T18:53:45.971Z,10.88
2022-11-16T18:56:14.214Z,9.57
2022-11-16T18:58:51.239Z,11.05
2022-11-16T19:01:22.159Z,8.23
2022-11-16T19:03:50.626Z,9.35
2022-11-16T19:06:18.667Z,6.47
2022-11-16T19:08:55.346Z,12.90
2022-11-16T19:11:24.680Z,7.37
2022-11-16T19:13:54.479Z,10.48
2022-11-16T19:16:22.672Z,8.00
2022-11-16T19:18:50.833Z,6.95
2022-11-16T19:21:19.478Z,6.57
2022-11-16T19:23:50.539Z,12.68
2022-11-16T19:26:20.144Z,11.35
2022-11-16T19:28:49.688Z,17.15
2022-11-16T19:31:19.783Z,10.00
2022-11-16T19:33:47.998Z,8.98
2022-11-16T19:36:17.896Z,8.15
2022-11-16T19:38:48.532Z,16.20
2022-11-16T19:41:18.076Z,11.20
2022-11-16T19:43:46.011Z,8.45
2022-11-16T19:46:16.814Z,5.20
2022-11-16T19:48:47.704Z,5.55
2022-11-16T19:51:18.815Z,4.25
2022-11-16T19:53:48.097Z,9.63
2022-11-16T19:56:18.243Z,5.50
2022-11-16T19:58:46.637Z,6.93
2022-11-16T20:01:17.115Z,6.55
2022-11-16T20:03:45.522Z,5.68
2022-11-16T20:06:15.433Z,8.57
2022-11-16T20:08:47.611Z,9.88
2022-11-16T20:11:20.222Z,7.70
2022-11-16T20:13:48.947Z,6.18
2022-11-16T20:16:18.175Z,7.75
2022-11-16T20:18:46.709Z,9.48
2022-11-16T20:21:19.380Z,7.95
2022-11-16T20:23:47.276Z,10.52
2022-11-16T20:26:16.571Z,10.10
2022-11-16T20:28:44.750Z,10.45
2022-11-16T20:31:15.052Z,10.05
2022-11-16T20:33:43.586Z,10.43
2022-11-16T20:36:12.482Z,9.27
2022-11-16T20:38:40.575Z,10.23
2022-11-16T20:41:10.273Z,8.18
2022-11-16T20:43:40.233Z,8.48
2022-11-16T20:46:08.537Z,12.60
2022-11-16T20:48:36.698Z,6.60
2022-11-16T20:51:05.140Z,8.00
2022-11-16T20:53:33.718Z,8.73
2022-11-16T20:56:02.556Z,9.57
2022-11-16T20:58:30.833Z,10.63
2022-11-16T21:01:02.189Z,11.38
2022-11-16T21:03:30.393Z,8.98
2022-11-16T21:05:58.292Z,13.13
2022-11-16T21:08:26.825Z,15.57
2022-11-16T21:10:54.982Z,10.52
2022-11-16T21:13:40.693Z,17.23
2022-11-16T21:16:12.158Z,19.80
2022-11-16T21:18:40.837Z,7.80
2022-11-16T21:21:11.312Z,6.95
2022-11-16T21:23:42.993Z,7.15
2022-11-16T21:26:13.118Z,9.00
2022-11-16T21:28:44.630Z,8.65
2022-11-16T21:31:15.495Z,7.78
2022-11-16T21:33:44.697Z,6.75
2022-11-16T21:36:14.176Z,6.20
2022-11-16T21:38:42.177Z,5.85
2022-11-16T21:41:11.216Z,4.78
2022-11-16T21:43:40.586Z,10.75
2022-11-16T21:46:11.283Z,10.15
2022-11-16T21:48:41.340Z,10.60
2022-11-16T21:51:10.904Z,11.18
2022-11-16T21:53:39.417Z,8.38
2022-11-16T21:56:10.832Z,6.20
2022-11-16T21:58:40.055Z,5.10
2022-11-16T22:01:08.749Z,11.85
2022-11-16T22:03:36.934Z,12.68
2022-11-16T22:06:25.720Z,9.10
2022-11-16T22:08:53.858Z,9.65
2022-11-16T22:11:22.160Z,8.70
2022-11-16T22:13:50.897Z,15.27
2022-11-16T22:16:23.255Z,7.35
2022-11-16T22:18:51.612Z,5.63
2022-11-16T22:21:20.877Z,9.05
2022-11-16T22:23:48.708Z,6.70
2022-11-16T22:26:16.796Z,7.03
2022-11-16T22:28:44.672Z,9.65
2022-11-16T22:31:13.924Z,6.95
2022-11-16T22:33:42.044Z,3.33
2022-11-16T22:36:10.940Z,3.67
2022-11-16T22:38:40.128Z,7.07
2022-11-16T22:41:08.035Z,7.78
2022-11-16T22:43:37.414Z,11.60
2022-11-16T22:46:07.274Z,6.10
2022-11-16T22:48:37.566Z,7.97
2022-11-16T22:51:07.693Z,9.63
2022-11-16T22:53:36.485Z,11.68
2022-11-16T22:56:08.069Z,7.38
2022-11-16T22:58:36.049Z,8.07
2022-11-16T23:01:04.192Z,8.68
2022-11-16T23:03:32.288Z,6.97
2022-11-16T23:06:00.624Z,6.22
2022-11-16T23:08:28.862Z,10.77
2022-11-16T23:11:18.527Z,7.78
2022-11-16T23:14:05.687Z,6.95
2022-11-16T23:16:33.803Z,7.50
2022-11-16T23:19:01.760Z,6.80
2022-11-16T23:21:55.871Z,16.00
2022-11-16T23:24:41.314Z,7.65
2022-11-16T23:27:28.479Z,6.30
2022-11-16T23:29:58.397Z,7.28
2022-11-16T23:32:26.311Z,7.43
2022-11-16T23:34:54.233Z,9.32
2022-11-16T23:37:22.188Z,8.00
2022-11-16T23:39:50.326Z,6.28
2022-11-16T23:42:35.761Z,8.48
2022-11-16T23:45:05.625Z,7.40
2022-11-16T23:47:33.596Z,5.53
2022-11-16T23:50:01.505Z,5.38
2022-11-16T23:52:29.409Z,13.50
2022-11-16T23:54:57.277Z,10.02
2022-11-16T23:57:25.189Z,9.25
2022-11-16T23:59:53.080Z,12.82
